Time;durP1;ratioP1;P1;durP2;ratioP2;P2;SDS_P1;SDS_P2;PMS_P1;PMS_P2;Temp;Humidity;BMP_temperature;BMP_pressure;BME280_temperature;BME280_humidity;BME280_pressure;Samples;Min_cycle;Max_cycle;Signal;HPM_P1;HPM_P2
2021/10/08 00:00:30;;;;;;;23.73;16.20;;;;;;;10.00;88.03;98558.56;6252477;28;20306;-72
2021/10/08 00:03:32;;;;;;;24.73;16.07;;;;;;;9.98;87.73;98555.22;6267818;28;20281;-72
2021/10/08 00:06:34;;;;;;;22.53;15.53;;;;;;;9.98;87.66;98553.38;6270374;28;20191;-72
2021/10/08 00:09:38;;;;;;;19.40;15.53;;;;;;;9.97;87.97;98546.44;6269656;28;20591;-73
2021/10/08 00:12:40;;;;;;;25.30;17.43;;;;;;;9.98;88.18;98555.22;6268828;28;20663;-72
2021/10/08 00:15:42;;;;;;;22.70;17.00;;;;;;;9.98;88.23;98557.84;6269582;28;20205;-72
2021/10/08 00:18:44;;;;;;;24.10;17.30;;;;;;;9.98;87.62;98545.47;6261931;28;20195;-72
2021/10/08 00:21:46;;;;;;;29.27;20.10;;;;;;;9.99;88.06;98541.03;6245134;28;20188;-72
2021/10/08 00:24:48;;;;;;;29.03;18.30;;;;;;;10.03;88.31;98539.06;6243681;28;20196;-72
2021/10/08 00:27:50;;;;;;;26.00;18.63;;;;;;;10.01;88.44;98541.81;6243739;28;20202;-72
2021/10/08 00:30:51;;;;;;;27.07;18.17;;;;;;;10.03;88.29;98552.25;6264865;28;20206;-72
2021/10/08 00:33:53;;;;;;;28.93;19.00;;;;;;;10.04;88.13;98552.16;6269516;28;20199;-72
2021/10/08 00:36:55;;;;;;;28.67;18.70;;;;;;;10.07;87.84;98554.63;6267928;28;20226;-72
2021/10/08 00:39:57;;;;;;;19.97;15.40;;;;;;;10.08;87.63;98555.47;6269451;28;20682;-72
2021/10/08 00:42:59;;;;;;;23.20;15.47;;;;;;;10.13;87.93;98566.53;6268061;28;20222;-72
2021/10/08 00:46:02;;;;;;;21.13;14.70;;;;;;;10.14;87.89;98558.53;6267925;28;20195;-72
2021/10/08 00:49:04;;;;;;;21.03;15.63;;;;;;;10.14;87.99;98560.34;6269350;28;20270;-72
2021/10/08 00:52:06;;;;;;;19.43;14.00;;;;;;;10.11;88.09;98563.16;6268092;28;20594;-72
2021/10/08 00:55:08;;;;;;;19.70;12.97;;;;;;;10.11;87.72;98560.53;6267725;28;20200;-72
2021/10/08 00:58:13;;;;;;;17.23;12.43;;;;;;;10.12;88.14;98565.69;6264219;28;20212;-72
2021/10/08 01:01:16;;;;;;;17.03;13.00;;;;;;;10.11;87.96;98566.63;6267281;28;20272;-72
2021/10/08 01:04:20;;;;;;;15.13;11.00;;;;;;;10.12;88.14;98572.75;6269291;28;20230;-72
2021/10/08 01:07:23;;;;;;;17.07;12.90;;;;;;;10.09;88.17;98578.22;6268783;28;20219;-73
2021/10/08 01:10:26;;;;;;;16.37;11.80;;;;;;;10.07;87.68;98574.88;6267852;28;20207;-72
2021/10/08 01:13:28;;;;;;;24.67;16.57;;;;;;;10.03;88.26;98576.84;6269197;28;20199;-72
2021/10/08 01:16:31;;;;;;;26.57;16.53;;;;;;;9.99;88.14;98567.41;6265657;28;20256;-72
2021/10/08 01:19:33;;;;;;;24.43;17.10;;;;;;;9.94;88.00;98566.88;6244406;28;20200;-72
2021/10/08 01:22:37;;;;;;;21.07;15.73;;;;;;;9.89;87.97;98572.44;6242620;28;20271;-72
2021/10/08 01:25:48;;;;;;;18.80;13.83;;;;;;;9.89;88.08;98576.84;6243021;28;20226;-72
2021/10/08 01:28:51;;;;;;;18.23;13.13;;;;;;;9.90;88.03;98570.66;6246440;28;20196;-72
2021/10/08 01:31:56;;;;;;;18.60;14.23;;;;;;;9.91;87.95;98577.59;6259758;28;20207;-72
2021/10/08 01:34:59;;;;;;;14.17;10.73;;;;;;;9.93;87.90;98579.22;6255705;28;20214;-72
2021/10/08 01:38:02;;;;;;;14.13;11.13;;;;;;;9.91;87.54;98588.16;6267135;28;20251;-72
2021/10/08 01:41:07;;;;;;;19.93;12.67;;;;;;;9.92;87.88;98587.22;6268765;28;20196;-72
2021/10/08 01:44:09;;;;;;;17.60;11.17;;;;;;;9.91;88.00;98589.00;6268508;28;20180;-72
2021/10/08 01:47:12;;;;;;;14.60;10.07;;;;;;;9.91;88.16;98590.78;6267422;28;20241;-72
2021/10/08 01:50:14;;;;;;;14.60;10.60;;;;;;;9.91;88.31;98588.16;6250720;28;20196;-72
2021/10/08 01:53:18;;;;;;;20.80;13.20;;;;;;;9.90;87.70;98591.75;6267389;28;20203;-72
2021/10/08 01:56:22;;;;;;;16.93;13.33;;;;;;;9.89;87.89;98590.88;6267034;28;20218;-72
2021/10/08 01:59:31;;;;;;;20.37;14.10;;;;;;;9.83;88.28;98596.56;6258806;28;20327;-72
2021/10/08 02:02:36;;;;;;;20.30;14.97;;;;;;;9.84;87.52;98597.41;6229930;28;20195;-72
2021/10/08 02:05:38;;;;;;;17.33;12.17;;;;;;;9.83;87.80;98593.06;6249743;28;20201;-72
2021/10/08 02:08:41;;;;;;;18.97;13.80;;;;;;;9.78;87.79;98593.34;6266910;28;20220;-72
2021/10/08 02:11:48;;;;;;;17.97;12.40;;;;;;;9.76;87.53;98591.78;6254491;28;20200;-72
2021/10/08 02:14:50;;;;;;;15.17;11.50;;;;;;;9.76;87.93;98589.97;6271340;28;20191;-72
2021/10/08 02:17:52;;;;;;;18.90;12.07;;;;;;;9.77;87.81;98594.31;6249987;28;20580;-72
2021/10/08 02:20:56;;;;;;;12.00;10.20;;;;;;;9.79;87.81;98602.09;6248053;28;20190;-72
2021/10/08 02:24:00;;;;;;;14.53;10.83;;;;;;;9.75;87.70;98597.97;6271072;28;20409;-72
2021/10/08 02:27:02;;;;;;;15.53;10.87;;;;;;;9.73;87.63;98587.53;6254771;28;20748;-72
2021/10/08 02:30:06;;;;;;;18.70;12.57;;;;;;;9.73;87.09;98591.94;6271152;28;20204;-72
2021/10/08 02:33:09;;;;;;;14.50;10.77;;;;;;;9.72;87.54;98593.75;6271146;28;20241;-72
2021/10/08 02:36:12;;;;;;;12.33;9.53;;;;;;;9.69;87.24;98582.53;6270594;28;20215;-72
2021/10/08 02:39:14;;;;;;;10.57;8.97;;;;;;;9.66;87.44;98582.75;6271252;28;20197;-72
2021/10/08 02:42:16;;;;;;;15.03;10.20;;;;;;;9.59;87.15;98585.75;6254340;28;20201;-72
2021/10/08 02:45:20;;;;;;;19.13;11.87;;;;;;;9.55;87.39;98589.53;6272241;28;20277;-72
2021/10/08 02:48:22;;;;;;;17.07;12.80;;;;;;;9.47;86.94;98591.78;6270587;28;20200;-72
2021/10/08 02:51:24;;;;;;;17.27;12.80;;;;;;;9.36;86.83;98602.13;6271641;28;20191;-72
2021/10/08 02:54:26;;;;;;;17.33;12.60;;;;;;;9.28;86.81;98601.75;6270602;28;20429;-72
2021/10/08 02:57:28;;;;;;;15.20;11.20;;;;;;;9.26;87.08;98608.88;6279313;28;20215;-72
2021/10/08 03:00:30;;;;;;;17.53;12.13;;;;;;;9.20;86.50;98610.09;6258721;28;20233;-72
2021/10/08 03:03:32;;;;;;;20.00;12.43;;;;;;;9.19;86.70;98610.19;6270544;28;20199;-72
2021/10/08 03:06:35;;;;;;;17.07;12.80;;;;;;;9.16;86.33;98613.88;6271792;28;20199;-72
2021/10/08 03:09:41;;;;;;;17.53;11.70;;;;;;;9.16;86.44;98620.91;6271581;28;20911;-72
2021/10/08 03:12:45;;;;;;;13.73;10.43;;;;;;;9.15;86.72;98617.44;6271092;28;20195;-72
2021/10/08 03:15:47;;;;;;;12.70;8.63;;;;;;;9.15;86.87;98617.44;6270365;28;20199;-72
2021/10/08 03:18:49;;;;;;;11.13;8.17;;;;;;;9.11;86.53;98623.81;6253321;28;20258;-72
2021/10/08 03:21:51;;;;;;;12.47;9.47;;;;;;;9.12;86.65;98622.88;6268651;28;20569;-72
2021/10/08 03:24:53;;;;;;;15.60;10.73;;;;;;;9.13;86.32;98618.47;6270128;28;20195;-72
2021/10/08 03:27:57;;;;;;;14.97;10.77;;;;;;;9.08;86.45;98617.91;6269757;28;20195;-72
2021/10/08 03:31:00;;;;;;;12.80;10.97;;;;;;;9.06;86.05;98620.63;6262440;28;20200;-72
2021/10/08 03:34:04;;;;;;;11.80;9.20;;;;;;;9.05;86.72;98624.19;6269625;28;20293;-72
2021/10/08 03:37:10;;;;;;;14.17;10.03;;;;;;;9.07;86.37;98624.09;6269255;28;20743;-72
2021/10/08 03:40:20;;;;;;;14.40;11.33;;;;;;;9.06;86.40;98628.50;6270760;28;20683;-72
2021/10/08 03:43:22;;;;;;;13.57;10.03;;;;;;;9.05;87.21;98625.97;6269446;28;20325;-72
2021/10/08 03:46:26;;;;;;;13.47;11.30;;;;;;;9.03;86.55;98631.31;6270619;28;20274;-72
2021/10/08 03:49:29;;;;;;;13.53;9.83;;;;;;;9.02;86.67;98631.41;6269123;28;20204;-72
2021/10/08 03:52:30;;;;;;;17.20;10.73;;;;;;;8.97;86.65;98629.06;6252630;28;20248;-72
2021/10/08 03:55:32;;;;;;;15.77;10.90;;;;;;;8.88;86.36;98643.56;6265560;28;20339;-72
2021/10/08 03:58:34;;;;;;;21.97;12.27;;;;;;;8.89;85.93;98640.00;6245330;28;20215;-72
2021/10/08 04:01:36;;;;;;;13.80;10.07;;;;;;;8.91;85.59;98641.72;6244189;28;20234;-72
2021/10/08 04:04:39;;;;;;;15.80;10.60;;;;;;;8.92;85.38;98643.41;6258757;28;20203;-72
2021/10/08 04:07:42;;;;;;;12.60;9.43;;;;;;;8.91;86.07;98649.59;6263563;28;20248;-72
2021/10/08 04:10:46;;;;;;;19.30;10.83;;;;;;;8.90;85.82;98648.75;6268748;28;20210;-72
2021/10/08 04:13:48;;;;;;;13.37;10.13;;;;;;;8.85;85.85;98654.31;6269689;28;20195;-72
2021/10/08 04:16:50;;;;;;;13.70;10.50;;;;;;;8.87;85.79;98656.84;6268314;28;20257;-72
2021/10/08 04:19:53;;;;;;;13.77;9.30;;;;;;;8.84;85.58;98655.25;6268391;28;20289;-72
2021/10/08 04:22:55;;;;;;;11.40;9.10;;;;;;;8.84;85.60;98651.75;6268583;28;20211;-72
2021/10/08 04:25:57;;;;;;;11.30;8.30;;;;;;;8.83;85.33;98655.31;6268422;28;20201;-72
2021/10/08 04:29:00;;;;;;;11.30;9.30;;;;;;;8.82;85.21;98665.00;6268351;28;20658;-72
2021/10/08 04:32:06;;;;;;;14.13;9.70;;;;;;;8.82;85.23;98674.69;6260287;28;20795;-72
2021/10/08 04:35:09;;;;;;;12.30;8.77;;;;;;;8.83;86.03;98671.13;6262308;28;20264;-72
2021/10/08 04:38:12;;;;;;;12.90;8.67;;;;;;;8.83;85.60;98671.13;6284850;28;20216;-72
2021/10/08 04:41:14;;;;;;;10.90;8.70;;;;;;;8.81;86.04;98676.47;6268084;28;20199;-72
2021/10/08 04:44:18;;;;;;;11.33;7.57;;;;;;;8.80;85.19;98676.53;6268146;28;20202;-72
2021/10/08 04:47:22;;;;;;;14.77;9.83;;;;;;;8.77;85.26;98672.31;6268035;28;20232;-72
2021/10/08 04:50:25;;;;;;;10.70;8.83;;;;;;;8.75;84.96;98678.59;6269279;28;20273;-72
2021/10/08 04:53:27;;;;;;;13.47;9.53;;;;;;;8.72;85.78;98676.13;6269316;28;20202;-72
2021/10/08 04:56:33;;;;;;;12.53;8.27;;;;;;;8.69;85.20;98677.16;6268123;28;20196;-72
2021/10/08 04:59:37;;;;;;;13.70;8.10;;;;;;;8.69;86.01;98678.94;6269149;28;20195;-72
2021/10/08 05:02:40;;;;;;;13.47;10.17;;;;;;;8.67;85.67;98676.41;6267883;28;20866;-72
2021/10/08 05:05:52;;;;;;;14.67;10.53;;;;;;;8.67;85.50;98675.56;6267553;28;20202;-72
2021/10/08 05:09:00;;;;;;;15.83;11.03;;;;;;;8.67;85.69;98675.56;6268576;28;20223;-72
2021/10/08 05:12:03;;;;;;;12.57;8.30;;;;;;;8.65;86.04;98677.44;6267549;28;20267;-72
2021/10/08 05:15:05;;;;;;;13.50;9.47;;;;;;;8.65;86.18;98675.66;6269254;28;20198;-72
2021/10/08 05:18:10;;;;;;;15.67;10.60;;;;;;;8.63;85.80;98679.28;6264964;28;21022;-72
2021/10/08 05:21:12;;;;;;;14.77;11.20;;;;;;;8.63;85.26;98685.41;6242898;28;20701;-72
2021/10/08 05:24:16;;;;;;;13.40;10.27;;;;;;;8.63;85.61;98687.19;6242864;28;20215;-72
2021/10/08 05:27:18;;;;;;;13.63;9.40;;;;;;;8.65;85.82;98686.19;6242362;28;20285;-72
2021/10/08 05:30:20;;;;;;;12.50;9.77;;;;;;;8.67;86.17;98697.47;6250339;28;20209;-72
2021/10/08 05:33:22;;;;;;;14.00;10.40;;;;;;;8.67;85.85;98696.63;6265420;28;20260;-72
2021/10/08 05:36:25;;;;;;;17.40;10.73;;;;;;;8.66;86.21;98708.06;6283897;28;20210;-72
2021/10/08 05:39:28;;;;;;;14.20;10.37;;;;;;;8.69;85.63;98715.78;6267221;28;20229;-72
2021/10/08 05:42:30;;;;;;;15.30;9.93;;;;;;;8.68;85.25;98717.59;6266877;28;20194;-72
2021/10/08 05:45:32;;;;;;;14.73;11.17;;;;;;;8.72;85.76;98716.47;6268665;28;20234;-72
2021/10/08 05:48:34;;;;;;;16.87;10.33;;;;;;;8.73;85.65;98710.28;6271770;28;20218;-72
2021/10/08 05:51:36;;;;;;;14.20;9.47;;;;;;;8.75;85.32;98712.81;6271751;28;20591;-72
2021/10/08 05:54:38;;;;;;;13.77;9.73;;;;;;;8.79;85.84;98714.31;6262838;28;20620;-72
2021/10/08 05:57:40;;;;;;;16.27;10.70;;;;;;;8.81;85.30;98721.22;6263222;28;20215;-72
2021/10/08 06:00:43;;;;;;;12.30;8.90;;;;;;;8.84;85.69;98721.03;6271476;28;20224;-72
2021/10/08 06:03:45;;;;;;;13.33;9.40;;;;;;;8.83;85.24;98721.97;6272971;28;20215;-72
2021/10/08 06:06:47;;;;;;;12.97;8.87;;;;;;;8.84;85.46;98728.09;6271550;28;20222;-72
2021/10/08 06:09:50;;;;;;;16.37;11.03;;;;;;;8.89;85.58;98733.94;6272551;28;20234;-72
2021/10/08 06:12:52;;;;;;;17.70;12.00;;;;;;;8.90;84.56;98733.00;6272735;28;20701;-72
2021/10/08 06:15:55;;;;;;;17.17;11.73;;;;;;;8.92;84.88;98732.91;6271353;28;20199;-72
2021/10/08 06:18:58;;;;;;;13.73;10.60;;;;;;;8.96;85.57;98734.44;6250602;28;20251;-72
2021/10/08 06:22:01;;;;;;;14.63;10.77;;;;;;;9.01;85.17;98733.25;6264841;28;20199;-72
2021/10/08 06:25:04;;;;;;;13.37;9.87;;;;;;;9.06;85.03;98739.09;6270943;28;20570;-72
2021/10/08 06:28:07;;;;;;;20.13;12.33;;;;;;;9.15;84.42;98735.94;6270887;28;20187;-72
2021/10/08 06:31:09;;;;;;;19.40;11.73;;;;;;;9.25;85.29;98744.16;6271258;28;20305;-72
2021/10/08 06:34:17;;;;;;;15.33;11.20;;;;;;;9.33;84.20;98744.56;6272034;28;20195;-72
2021/10/08 06:37:20;;;;;;;15.57;11.17;;;;;;;9.40;83.99;98747.66;6270884;28;20206;-72
2021/10/08 06:40:22;;;;;;;15.73;9.93;;;;;;;9.46;84.08;98748.19;6270734;28;20199;-72
2021/10/08 06:43:27;;;;;;;12.20;9.93;;;;;;;9.53;83.88;98746.88;6270839;28;20210;-72
2021/10/08 06:46:55;;;;;;;16.53;10.53;;;;;;;9.60;83.86;98748.19;6271911;28;20276;-72
2021/10/08 06:49:57;;;;;;;16.13;11.17;;;;;;;9.69;83.50;98753.84;6270538;28;20213;-72
2021/10/08 06:52:58;;;;;;;15.03;10.97;;;;;;;9.73;82.76;98760.66;6270558;28;20202;-72
2021/10/08 06:56:01;;;;;;;12.97;10.13;;;;;;;9.77;82.86;98763.03;6255669;28;20266;-71
2021/10/08 06:59:24;;;;;;;13.67;9.53;;;;;;;9.84;82.77;98768.78;6260409;28;20203;-72
2021/10/08 07:02:27;;;;;;;14.83;9.07;;;;;;;9.88;82.31;98770.31;6271319;28;20216;-72
2021/10/08 07:05:29;;;;;;;15.57;10.03;;;;;;;9.94;81.74;98769.91;6270194;28;20567;-72
2021/10/08 07:08:33;;;;;;;13.07;9.93;;;;;;;10.02;82.46;98770.28;6269927;28;20334;-72
2021/10/08 07:11:36;;;;;;;12.83;9.40;;;;;;;10.14;81.75;98774.84;6271115;28;20191;-72
2021/10/08 07:14:38;;;;;;;15.90;10.07;;;;;;;10.25;81.63;98768.94;6271593;28;20445;-72
2021/10/08 07:17:43;;;;;;;14.23;9.53;;;;;;;10.35;81.42;98770.06;6249405;28;20308;-72
2021/10/08 07:20:45;;;;;;;17.63;10.53;;;;;;;10.47;81.69;98771.09;6246502;28;20200;-72
2021/10/08 07:23:48;;;;;;;13.07;8.70;;;;;;;10.60;81.35;98779.94;6260794;28;20228;-72
2021/10/08 07:26:50;;;;;;;14.80;10.50;;;;;;;10.71;80.37;98782.75;6286591;28;20604;-72
2021/10/08 07:29:52;;;;;;;13.23;9.67;;;;;;;10.81;80.77;98780.38;6269515;28;20205;-72
2021/10/08 07:32:54;;;;;;;16.37;10.03;;;;;;;10.87;79.84;98787.91;6270659;28;20200;-72
2021/10/08 07:35:56;;;;;;;12.53;10.00;;;;;;;10.94;78.55;98786.56;6270699;28;20192;-72
2021/10/08 07:38:58;;;;;;;13.23;9.63;;;;;;;10.98;77.88;98788.91;6270607;28;20204;-72
2021/10/08 07:42:00;;;;;;;12.13;9.73;;;;;;;11.02;77.35;98787.75;6270653;28;20197;-72
2021/10/08 07:45:07;;;;;;;12.03;9.47;;;;;;;11.12;77.25;98793.31;6270363;28;20200;-71
2021/10/08 07:48:09;;;;;;;15.63;9.70;;;;;;;11.21;76.60;98791.84;6270431;28;20276;-72
2021/10/08 07:51:13;;;;;;;14.33;9.70;;;;;;;11.26;76.20;98792.41;6270321;28;20322;-72
2021/10/08 07:54:15;;;;;;;13.53;9.20;;;;;;;11.33;75.76;98788.41;6270005;28;20197;-72
2021/10/08 07:57:16;;;;;;;14.37;9.97;;;;;;;11.46;75.34;98790.16;6262355;28;20256;-72
2021/10/08 08:00:18;;;;;;;11.57;8.23;;;;;;;11.62;75.39;98797.06;6247910;28;20289;-72
2021/10/08 08:03:21;;;;;;;15.30;8.70;;;;;;;11.71;75.62;98799.09;6244110;28;20192;-72
2021/10/08 08:06:23;;;;;;;15.20;8.83;;;;;;;11.76;74.05;98792.59;6243974;28;20818;-72
2021/10/08 08:09:25;;;;;;;13.07;8.97;;;;;;;11.87;74.71;98794.50;6244397;28;20236;-72
2021/10/08 08:12:27;;;;;;;11.73;8.57;;;;;;;12.04;74.78;98791.56;6245017;28;20270;-72
2021/10/08 08:15:29;;;;;;;13.53;9.07;;;;;;;12.27;74.59;98791.78;6253047;28;20191;-72
2021/10/08 08:18:31;;;;;;;9.80;8.27;;;;;;;12.37;74.75;98791.03;6269570;28;20209;-72
2021/10/08 08:21:33;;;;;;;12.40;8.30;;;;;;;12.46;72.90;98795.69;6269898;28;20207;-72
2021/10/08 08:24:35;;;;;;;13.57;7.87;;;;;;;12.52;70.59;98799.69;6269643;28;20560;-72
2021/10/08 08:27:37;;;;;;;11.97;7.70;;;;;;;12.57;71.54;98794.94;6268229;28;20184;-72
2021/10/08 08:30:41;;;;;;;11.53;7.33;;;;;;;12.55;71.36;98796.84;6269267;28;20199;-72
2021/10/08 08:33:43;;;;;;;13.87;7.80;;;;;;;12.54;70.88;98796.00;6251807;28;20209;-72
2021/10/08 08:36:45;;;;;;;11.63;7.60;;;;;;;12.57;70.81;98798.44;6268153;28;20220;-72
2021/10/08 08:39:48;;;;;;;12.07;8.13;;;;;;;12.61;68.92;98795.53;6267814;28;20217;-72
2021/10/08 08:42:53;;;;;;;11.33;7.50;;;;;;;12.79;67.86;98794.22;6269311;28;20193;-72
2021/10/08 08:45:56;;;;;;;8.50;6.93;;;;;;;12.93;67.31;98791.44;6269735;28;20276;-72
2021/10/08 08:49:00;;;;;;;17.27;8.80;;;;;;;13.01;65.84;98789.09;6269346;28;20195;-71
2021/10/08 08:52:02;;;;;;;12.50;8.23;;;;;;;13.07;65.30;98796.63;6269139;28;20194;-72
2021/10/08 08:55:05;;;;;;;14.67;8.30;;;;;;;13.21;64.86;98779.72;6265123;28;20230;-72
2021/10/08 08:58:07;;;;;;;11.07;7.70;;;;;;;13.25;64.41;98779.38;6244382;28;20233;-72
2021/10/08 09:01:09;;;;;;;8.53;7.00;;;;;;;13.34;64.17;98779.66;6266461;28;20304;-71
2021/10/08 09:04:12;;;;;;;9.13;6.27;;;;;;;13.43;63.55;98781.63;6269880;28;20209;-71
2021/10/08 09:07:14;;;;;;;9.50;7.40;;;;;;;13.53;62.81;98782.63;6268778;28;20281;-72
2021/10/08 09:10:19;;;;;;;12.63;7.23;;;;;;;13.74;63.33;98781.03;6267473;28;20194;-72
2021/10/08 09:13:22;;;;;;;9.77;6.57;;;;;;;13.89;64.86;98777.19;6268872;28;20670;-72
2021/10/08 09:16:24;;;;;;;10.07;6.97;;;;;;;13.85;64.29;98778.41;6260299;28;20274;-72
2021/10/08 09:19:44;;;;;;;9.77;6.30;;;;;;;14.21;65.35;98780.03;6242875;28;20207;-72
2021/10/08 09:22:51;;;;;;;15.07;7.90;;;;;;;14.86;62.48;98774.03;6249211;28;20192;-72
2021/10/08 09:25:53;;;;;;;11.30;7.77;;;;;;;15.07;61.11;98776.78;6248036;28;20257;-72
2021/10/08 09:29:01;;;;;;;10.60;7.30;;;;;;;15.03;61.07;98775.31;6253267;28;20218;-72
2021/10/08 09:32:03;;;;;;;10.80;7.37;;;;;;;15.13;60.80;98770.94;6273804;28;20564;-72
2021/10/08 09:35:08;;;;;;;15.00;7.73;;;;;;;15.25;60.68;98766.44;6273615;28;20187;-72
2021/10/08 09:38:13;;;;;;;10.13;6.43;;;;;;;15.34;60.59;98771.00;6272170;28;20218;-71
2021/10/08 09:41:15;;;;;;;9.10;6.43;;;;;;;15.13;60.89;98760.31;6273450;28;20192;-72
2021/10/08 09:44:17;;;;;;;8.47;6.13;;;;;;;14.83;61.55;98763.66;6273478;28;20687;-72
2021/10/08 09:47:21;;;;;;;8.40;5.97;;;;;;;14.58;63.67;98761.25;6271934;28;20317;-72
2021/10/08 09:50:23;;;;;;;8.07;5.60;;;;;;;14.47;65.46;98767.44;6273249;28;20221;-72
2021/10/08 09:53:26;;;;;;;9.27;6.37;;;;;;;14.42;66.12;98763.44;6273090;28;20190;-72
2021/10/08 09:56:39;;;;;;;8.47;5.73;;;;;;;14.42;65.37;98769.59;6272996;28;20237;-72
2021/10/08 09:59:41;;;;;;;13.57;7.23;;;;;;;14.48;64.18;98762.94;6258948;28;20226;-71
2021/10/08 10:02:59;;;;;;;10.30;6.03;;;;;;;14.54;64.11;98765.13;6273264;28;20203;-72
2021/10/08 10:06:04;;;;;;;7.97;5.53;;;;;;;14.70;63.70;98760.28;6273063;28;20192;-72
2021/10/08 10:09:08;;;;;;;8.10;5.83;;;;;;;14.69;63.44;98751.44;6272575;28;20231;-72
2021/10/08 10:12:13;;;;;;;10.10;6.03;;;;;;;14.78;64.20;98755.19;6272949;28;20191;-72
2021/10/08 10:15:16;;;;;;;8.90;5.40;;;;;;;14.86;64.56;98757.25;6272563;28;20276;-72
2021/10/08 10:18:20;;;;;;;9.60;5.97;;;;;;;14.90;65.31;98756.84;6266877;28;20269;-72
2021/10/08 10:21:24;;;;;;;7.53;5.83;;;;;;;15.08;63.18;98757.16;6267879;28;20214;-72
2021/10/08 10:24:28;;;;;;;9.53;5.87;;;;;;;15.36;61.91;98753.97;6247709;28;20184;-72
2021/10/08 10:27:30;;;;;;;9.20;5.40;;;;;;;15.78;60.69;98752.19;6247816;28;20188;-72
2021/10/08 10:30:34;;;;;;;9.70;5.13;;;;;;;16.13;60.55;98743.03;6264939;28;20726;-72
2021/10/08 10:33:36;;;;;;;8.07;5.10;;;;;;;16.39;55.75;98749.59;6272293;28;20202;-72
2021/10/08 10:36:43;;;;;;;10.83;5.53;;;;;;;16.82;58.12;98744.06;6272075;28;20202;-72
2021/10/08 10:39:45;;;;;;;12.80;5.87;;;;;;;17.03;56.13;98743.97;6272058;28;20582;-72
2021/10/08 10:43:15;;;;;;;9.33;5.53;;;;;;;16.80;53.41;98745.16;6270796;28;20195;-72
2021/10/08 10:46:39;;;;;;;7.70;5.03;;;;;;;16.48;55.29;98739.97;6271610;28;20206;-72
2021/10/08 10:49:49;;;;;;;6.47;4.57;;;;;;;16.92;55.77;98738.75;6271920;28;20321;-72
2021/10/08 10:52:55;;;;;;;5.80;4.60;;;;;;;17.41;55.11;98736.97;6271666;28;20564;-72
2021/10/08 10:55:57;;;;;;;6.57;4.57;;;;;;;17.72;55.60;98735.03;6266117;28;20238;-72
2021/10/08 10:59:24;;;;;;;10.50;5.80;;;;;;;17.50;54.03;98734.31;6250362;28;20211;-72
2021/10/08 11:02:27;;;;;;;6.87;5.23;;;;;;;17.79;56.05;98728.13;6253750;28;20683;-73
2021/10/08 11:05:30;;;;;;;10.40;7.07;;;;;;;17.19;53.21;98733.59;6271872;28;20647;-72
2021/10/08 11:08:32;;;;;;;9.70;6.37;;;;;;;16.53;55.59;98740.41;6270103;28;20306;-72
2021/10/08 11:11:34;;;;;;;10.37;6.53;;;;;;;16.39;55.94;98738.09;6270182;28;20202;-72
2021/10/08 11:14:36;;;;;;;11.57;6.10;;;;;;;16.67;55.89;98737.41;6271231;28;20198;-72
2021/10/08 11:17:54;;;;;;;8.03;6.53;;;;;;;17.16;54.60;98730.38;6258003;28;20192;-72
2021/10/08 11:21:02;;;;;;;9.87;6.27;;;;;;;17.61;54.90;98728.81;6245260;28;20224;-72
2021/10/08 11:24:23;;;;;;;9.40;6.17;;;;;;;17.70;55.07;98719.16;6246496;28;20192;-72
2021/10/08 11:27:25;;;;;;;7.27;5.97;;;;;;;18.05;54.97;98721.22;6246369;28;20270;-72
2021/10/08 11:30:29;;;;;;;8.63;5.37;;;;;;;17.79;53.71;98723.63;6263047;28;20196;-72
2021/10/08 11:33:44;;;;;;;12.20;5.77;;;;;;;17.40;53.78;98722.78;6270903;28;20192;-73
2021/10/08 11:36:55;;;;;;;8.27;6.27;;;;;;;17.75;51.60;98700.03;6270742;28;20185;-72
2021/10/08 11:39:57;;;;;;;10.17;6.17;;;;;;;17.95;52.55;98709.72;6269533;28;20214;-72
2021/10/08 11:43:03;;;;;;;10.87;6.87;;;;;;;17.25;53.22;98718.88;6269587;28;20206;-72
2021/10/08 11:46:37;;;;;;;11.23;6.27;;;;;;;16.19;54.02;98727.38;6270590;28;20183;-73
2021/10/08 11:49:47;;;;;;;11.87;7.30;;;;;;;15.40;56.37;98731.44;6270294;28;20211;-73
2021/10/08 11:52:54;;;;;;;10.77;7.93;;;;;;;15.07;58.07;98727.06;6269029;28;20202;-72
2021/10/08 11:55:55;;;;;;;10.17;7.60;;;;;;;15.91;57.24;98719.22;6253952;28;20188;-72
2021/10/08 11:59:08;;;;;;;10.43;7.70;;;;;;;16.48;54.64;98710.66;6257253;28;20694;-72
2021/10/08 12:02:15;;;;;;;10.30;6.80;;;;;;;17.12;54.08;98703.13;6269051;28;20237;-72
2021/10/08 12:05:17;;;;;;;10.10;6.40;;;;;;;17.95;53.77;98699.03;6269076;28;20672;-72
2021/10/08 12:08:34;;;;;;;16.07;8.00;;;;;;;18.46;50.65;98697.72;6270155;28;20298;-72
2021/10/08 12:11:36;;;;;;;11.10;7.63;;;;;;;17.91;51.39;98697.63;6260299;28;20800;-72
2021/10/08 12:14:48;;;;;;;9.63;6.80;;;;;;;17.23;52.06;98700.31;6244656;28;20192;-72
2021/10/08 12:17:52;;;;;;;11.10;6.40;;;;;;;16.88;54.85;98708.84;6263438;28;20191;-72
2021/10/08 12:21:12;;;;;;;11.67;8.00;;;;;;;16.08;55.30;98708.81;6260747;28;20211;-72
2021/10/08 12:24:19;;;;;;;11.60;7.70;;;;;;;16.33;55.01;98707.53;6250728;28;20598;-72
2021/10/08 12:27:21;;;;;;;11.00;6.97;;;;;;;16.43;54.93;98702.22;6253743;28;20288;-72
2021/10/08 12:30:26;;;;;;;10.47;7.67;;;;;;;16.69;54.42;98695.47;6243502;28;20188;-72
2021/10/08 12:33:54;;;;;;;11.67;6.47;;;;;;;16.67;54.86;98697.41;6250761;28;20222;-72
2021/10/08 12:37:02;;;;;;;8.73;6.50;;;;;;;16.35;55.87;98699.41;6244814;28;20218;-72
2021/10/08 12:40:12;;;;;;;10.07;7.00;;;;;;;15.95;55.79;98702.88;6259729;28;20211;-72
2021/10/08 12:43:21;;;;;;;11.63;7.30;;;;;;;15.72;57.30;98704.81;6241735;28;20571;-72
2021/10/08 12:46:22;;;;;;;14.17;7.23;;;;;;;15.93;57.64;98707.47;6259022;28;20403;-72
2021/10/08 12:49:25;;;;;;;10.13;6.17;;;;;;;16.53;56.57;98697.78;6258868;28;20226;-72
2021/10/08 12:52:56;;;;;;;11.73;6.80;;;;;;;16.71;57.09;98698.84;6253889;28;20587;-72
2021/10/08 12:56:19;;;;;;;14.03;8.33;;;;;;;16.43;54.71;98705.75;6268059;28;20282;-73
2021/10/08 12:59:21;;;;;;;13.77;8.20;;;;;;;16.27;55.79;98708.03;6250352;28;20196;-73
2021/10/08 13:02:41;;;;;;;10.80;8.50;;;;;;;16.01;56.23;98709.47;6275994;28;20594;-73
2021/10/08 13:05:48;;;;;;;10.17;7.27;;;;;;;16.14;56.28;98697.63;6255394;28;20491;-73
2021/10/08 13:09:10;;;;;;;10.00;7.37;;;;;;;16.43;56.50;98702.22;6258737;28;20270;-73
2021/10/08 13:12:12;;;;;;;11.07;7.00;;;;;;;16.43;56.76;98695.09;6247462;28;20547;-72
2021/10/08 13:15:17;;;;;;;9.23;7.23;;;;;;;16.47;57.66;98703.66;6258609;28;20554;-73
2021/10/08 13:18:21;;;;;;;10.60;7.77;;;;;;;16.51;57.45;98705.06;6258856;28;20272;-72
2021/10/08 13:21:23;;;;;;;13.43;7.90;;;;;;;16.18;56.53;98698.19;6262185;28;20230;-72
2021/10/08 13:24:26;;;;;;;11.13;8.37;;;;;;;15.56;57.74;98712.44;6265685;28;20692;-72
2021/10/08 13:27:31;;;;;;;10.37;7.87;;;;;;;15.39;58.98;98705.81;6248413;28;20187;-72
2021/10/08 13:30:33;;;;;;;9.70;7.33;;;;;;;15.28;59.51;98705.84;6260200;28;20711;-72
2021/10/08 13:33:38;;;;;;;11.90;8.00;;;;;;;15.41;59.59;98708.34;6255670;28;20200;-72
2021/10/08 13:36:45;;;;;;;11.53;7.50;;;;;;;15.61;60.32;98704.88;6245774;28;20196;-72
2021/10/08 13:39:47;;;;;;;8.93;7.57;;;;;;;15.63;60.12;98707.41;6257417;28;20692;-72
2021/10/08 13:42:50;;;;;;;7.77;6.97;;;;;;;15.62;61.15;98703.91;6258022;28;20184;-72
2021/10/08 13:45:52;;;;;;;9.17;7.40;;;;;;;15.52;61.21;98702.97;6248210;28;20195;-72
2021/10/08 13:48:53;;;;;;;10.70;8.17;;;;;;;15.49;61.18;98701.41;6259647;28;20214;-72
2021/10/08 13:51:55;;;;;;;9.17;7.33;;;;;;;15.38;62.39;98697.94;6250971;28;20551;-72
2021/10/08 13:54:57;;;;;;;9.23;7.83;;;;;;;15.35;61.83;98690.25;6267089;28;20191;-72
2021/10/08 13:57:59;;;;;;;7.77;6.93;;;;;;;15.28;60.82;98692.56;6245304;28;20601;-72
2021/10/08 14:01:01;;;;;;;11.13;7.13;;;;;;;15.25;61.38;98692.84;6258830;28;20219;-73
2021/10/08 14:04:15;;;;;;;9.67;6.70;;;;;;;15.21;62.34;98682.56;6268019;28;20225;-72
2021/10/08 14:10:25;;;;;;;11.47;7.80;;;;;;;14.97;62.05;98690.78;6267478;28;20188;-72
2021/10/08 14:13:27;;;;;;;8.97;7.00;;;;;;;14.85;62.78;98687.28;6267890;28;20314;-73
2021/10/08 14:16:30;;;;;;;10.07;7.03;;;;;;;15.00;63.46;98685.19;6268265;28;20199;-72
2021/10/08 14:19:32;;;;;;;8.17;7.10;;;;;;;15.00;62.79;98686.03;6261815;28;20239;-72
2021/10/08 14:22:35;;;;;;;10.73;7.47;;;;;;;14.86;62.15;98682.81;6258117;28;20271;-73